sensor_id;sensor_type;location;lat;lon;timestamp;P1;durP1;ratioP1;P2;durP2;ratioP2
673;SDS011;319;48.764;9.174;2023-08-17T00:01:53;6.60;;;6.40;;
673;SDS011;319;48.764;9.174;2023-08-17T00:04:20;5.10;;;5.00;;
673;SDS011;319;48.764;9.174;2023-08-17T00:06:47;6.10;;;6.00;;
673;SDS011;319;48.764;9.174;2023-08-17T00:09:14;6.17;;;6.07;;
673;SDS011;319;48.764;9.174;2023-08-17T00:11:41;5.93;;;5.83;;
673;SDS011;319;48.764;9.174;2023-08-17T00:14:08;4.60;;;4.50;;
673;SDS011;319;48.764;9.174;2023-08-17T00:16:35;5.10;;;5.00;;
673;SDS011;319;48.764;9.174;2023-08-17T00:19:03;5.43;;;5.33;;
673;SDS011;319;48.764;9.174;2023-08-17T00:21:30;5.40;;;5.30;;
673;SDS011;319;48.764;9.174;2023-08-17T00:23:57;5.93;;;5.83;;
673;SDS011;319;48.764;9.174;2023-08-17T00:26:24;6.00;;;5.90;;
673;SDS011;319;48.764;9.174;2023-08-17T00:28:53;6.60;;;6.40;;
673;SDS011;319;48.764;9.174;2023-08-17T00:31:20;6.80;;;6.60;;
673;SDS011;319;48.764;9.174;2023-08-17T00:33:47;6.40;;;6.20;;
673;SDS011;319;48.764;9.174;2023-08-17T00:36:15;6.60;;;6.40;;
673;SDS011;319;48.764;9.174;2023-08-17T00:38:42;6.97;;;6.77;;
673;SDS011;319;48.764;9.174;2023-08-17T00:41:09;6.90;;;6.70;;
673;SDS011;319;48.764;9.174;2023-08-17T00:43:36;6.23;;;6.13;;
673;SDS011;319;48.764;9.174;2023-08-17T00:46:03;5.63;;;5.53;;
673;SDS011;319;48.764;9.174;2023-08-17T00:48:30;5.40;;;5.30;;
673;SDS011;319;48.764;9.174;2023-08-17T00:50:59;5.57;;;5.47;;
673;SDS011;319;48.764;9.174;2023-08-17T00:53:28;5.87;;;5.77;;
673;SDS011;319;48.764;9.174;2023-08-17T00:55:57;5.50;;;5.40;;
673;SDS011;319;48.764;9.174;2023-08-17T00:58:25;6.10;;;6.00;;
673;SDS011;319;48.764;9.174;2023-08-17T01:00:53;6.10;;;6.00;;
673;SDS011;319;48.764;9.174;2023-08-17T01:03:20;6.90;;;6.70;;
673;SDS011;319;48.764;9.174;2023-08-17T01:05:49;6.33;;;6.20;;
673;SDS011;319;48.764;9.174;2023-08-17T01:08:16;5.90;;;5.80;;
673;SDS011;319;48.764;9.174;2023-08-17T01:10:47;6.37;;;6.20;;
673;SDS011;319;48.764;9.174;2023-08-17T01:13:24;7.10;;;6.90;;
673;SDS011;319;48.764;9.174;2023-08-17T01:15:58;7.63;;;7.43;;
673;SDS011;319;48.764;9.174;2023-08-17T01:18:29;7.90;;;7.70;;
673;SDS011;319;48.764;9.174;2023-08-17T01:20:59;8.20;;;8.00;;
673;SDS011;319;48.764;9.174;2023-08-17T01:23:29;7.40;;;7.20;;
673;SDS011;319;48.764;9.174;2023-08-17T01:25:56;8.10;;;7.90;;
673;SDS011;319;48.764;9.174;2023-08-17T01:28:23;11.00;;;10.70;;
673;SDS011;319;48.764;9.174;2023-08-17T01:30:53;10.87;;;10.57;;
673;SDS011;319;48.764;9.174;2023-08-17T01:33:25;10.60;;;10.30;;
673;SDS011;319;48.764;9.174;2023-08-17T01:36:00;11.07;;;10.77;;
673;SDS011;319;48.764;9.174;2023-08-17T01:38:32;10.83;;;10.53;;
673;SDS011;319;48.764;9.174;2023-08-17T01:41:02;10.80;;;10.50;;
673;SDS011;319;48.764;9.174;2023-08-17T01:43:30;11.30;;;11.00;;
673;SDS011;319;48.764;9.174;2023-08-17T01:45:58;11.20;;;10.90;;
673;SDS011;319;48.764;9.174;2023-08-17T01:48:25;11.60;;;11.30;;
673;SDS011;319;48.764;9.174;2023-08-17T01:50:52;11.37;;;11.07;;
673;SDS011;319;48.764;9.174;2023-08-17T01:53:19;11.30;;;11.00;;
673;SDS011;319;48.764;9.174;2023-08-17T01:55:47;11.20;;;10.90;;
673;SDS011;319;48.764;9.174;2023-08-17T01:58:14;11.50;;;11.20;;
673;SDS011;319;48.764;9.174;2023-08-17T02:00:41;11.03;;;10.73;;
673;SDS011;319;48.764;9.174;2023-08-17T02:03:08;10.77;;;10.47;;
673;SDS011;319;48.764;9.174;2023-08-17T02:05:35;11.20;;;10.90;;
673;SDS011;319;48.764;9.174;2023-08-17T02:08:02;10.90;;;10.60;;
673;SDS011;319;48.764;9.174;2023-08-17T02:10:29;11.00;;;10.70;;
673;SDS011;319;48.764;9.174;2023-08-17T02:12:57;10.90;;;10.60;;
673;SDS011;319;48.764;9.174;2023-08-17T02:15:24;11.10;;;10.80;;
673;SDS011;319;48.764;9.174;2023-08-17T02:17:51;10.60;;;10.30;;
673;SDS011;319;48.764;9.174;2023-08-17T02:20:18;11.10;;;10.80;;
673;SDS011;319;48.764;9.174;2023-08-17T02:22:45;11.23;;;10.93;;
673;SDS011;319;48.764;9.174;2023-08-17T02:25:12;10.80;;;10.50;;
673;SDS011;319;48.764;9.174;2023-08-17T02:27:39;10.80;;;10.50;;
673;SDS011;319;48.764;9.174;2023-08-17T02:30:08;10.50;;;10.20;;
673;SDS011;319;48.764;9.174;2023-08-17T02:32:36;10.80;;;10.50;;
673;SDS011;319;48.764;9.174;2023-08-17T02:35:03;10.60;;;10.30;;
673;SDS011;319;48.764;9.174;2023-08-17T02:37:30;3.70;;;3.60;;
673;SDS011;319;48.764;9.174;2023-08-17T02:39:57;3.03;;;2.93;;
673;SDS011;319;48.764;9.174;2023-08-17T02:42:24;3.00;;;2.90;;
673;SDS011;319;48.764;9.174;2023-08-17T02:44:51;3.00;;;2.90;;
673;SDS011;319;48.764;9.174;2023-08-17T02:47:19;3.63;;;3.53;;
673;SDS011;319;48.764;9.174;2023-08-17T02:49:46;11.80;;;11.50;;
673;SDS011;319;48.764;9.174;2023-08-17T02:52:14;9.80;;;9.60;;
673;SDS011;319;48.764;9.174;2023-08-17T02:54:41;8.00;;;7.80;;
673;SDS011;319;48.764;9.174;2023-08-17T02:57:08;8.13;;;7.93;;
673;SDS011;319;48.764;9.174;2023-08-17T02:59:35;8.17;;;7.97;;
673;SDS011;319;48.764;9.174;2023-08-17T03:02:01;7.90;;;7.70;;
673;SDS011;319;48.764;9.174;2023-08-17T03:04:30;8.20;;;8.00;;
673;SDS011;319;48.764;9.174;2023-08-17T03:06:58;8.97;;;8.77;;
673;SDS011;319;48.764;9.174;2023-08-17T03:09:24;9.67;;;9.47;;
673;SDS011;319;48.764;9.174;2023-08-17T03:11:51;7.50;;;7.30;;
673;SDS011;319;48.764;9.174;2023-08-17T03:14:18;11.10;;;10.80;;
673;SDS011;319;48.764;9.174;2023-08-17T03:16:45;10.40;;;10.10;;
673;SDS011;319;48.764;9.174;2023-08-17T03:19:12;10.50;;;10.20;;
673;SDS011;319;48.764;9.174;2023-08-17T03:21:40;11.47;;;11.17;;
673;SDS011;319;48.764;9.174;2023-08-17T03:24:07;11.00;;;10.70;;
673;SDS011;319;48.764;9.174;2023-08-17T03:26:34;11.10;;;10.80;;
673;SDS011;319;48.764;9.174;2023-08-17T03:29:01;11.70;;;11.40;;
673;SDS011;319;48.764;9.174;2023-08-17T03:31:28;11.90;;;11.60;;
673;SDS011;319;48.764;9.174;2023-08-17T03:33:55;11.50;;;11.20;;
673;SDS011;319;48.764;9.174;2023-08-17T03:36:22;11.10;;;10.80;;
673;SDS011;319;48.764;9.174;2023-08-17T03:38:50;11.43;;;11.13;;
673;SDS011;319;48.764;9.174;2023-08-17T03:41:17;11.20;;;10.90;;
673;SDS011;319;48.764;9.174;2023-08-17T03:43:44;11.70;;;11.40;;
673;SDS011;319;48.764;9.174;2023-08-17T03:46:12;11.50;;;11.20;;
673;SDS011;319;48.764;9.174;2023-08-17T03:48:39;11.30;;;11.00;;
673;SDS011;319;48.764;9.174;2023-08-17T03:51:06;11.00;;;10.70;;
673;SDS011;319;48.764;9.174;2023-08-17T03:53:33;11.20;;;10.90;;
673;SDS011;319;48.764;9.174;2023-08-17T03:56:02;11.83;;;11.53;;
673;SDS011;319;48.764;9.174;2023-08-17T03:58:29;10.33;;;10.03;;
673;SDS011;319;48.764;9.174;2023-08-17T04:00:59;11.60;;;11.30;;
673;SDS011;319;48.764;9.174;2023-08-17T04:03:27;10.63;;;10.33;;
673;SDS011;319;48.764;9.174;2023-08-17T04:05:54;11.60;;;11.30;;
673;SDS011;319;48.764;9.174;2023-08-17T04:08:20;12.40;;;12.10;;
673;SDS011;319;48.764;9.174;2023-08-17T04:10:47;12.00;;;11.70;;
673;SDS011;319;48.764;9.174;2023-08-17T04:13:16;11.83;;;11.53;;
673;SDS011;319;48.764;9.174;2023-08-17T04:15:43;11.30;;;11.00;;
673;SDS011;319;48.764;9.174;2023-08-17T04:18:10;11.00;;;10.70;;
673;SDS011;319;48.764;9.174;2023-08-17T04:20:37;11.80;;;11.50;;
673;SDS011;319;48.764;9.174;2023-08-17T04:23:04;12.30;;;12.00;;
673;SDS011;319;48.764;9.174;2023-08-17T04:25:31;10.63;;;10.33;;
673;SDS011;319;48.764;9.174;2023-08-17T04:27:57;11.50;;;11.20;;
673;SDS011;319;48.764;9.174;2023-08-17T04:30:26;11.27;;;10.97;;
673;SDS011;319;48.764;9.174;2023-08-17T04:32:53;12.30;;;12.00;;
673;SDS011;319;48.764;9.174;2023-08-17T04:35:20;11.67;;;11.37;;
673;SDS011;319;48.764;9.174;2023-08-17T04:37:47;11.70;;;11.40;;
673;SDS011;319;48.764;9.174;2023-08-17T04:40:14;8.77;;;8.57;;
673;SDS011;319;48.764;9.174;2023-08-17T04:42:41;12.10;;;11.80;;
673;SDS011;319;48.764;9.174;2023-08-17T04:45:08;12.00;;;11.70;;
673;SDS011;319;48.764;9.174;2023-08-17T04:47:37;12.00;;;11.70;;
673;SDS011;319;48.764;9.174;2023-08-17T04:50:04;11.50;;;11.20;;
673;SDS011;319;48.764;9.174;2023-08-17T04:52:32;11.80;;;11.50;;
673;SDS011;319;48.764;9.174;2023-08-17T04:54:59;11.70;;;11.40;;
673;SDS011;319;48.764;9.174;2023-08-17T04:57:26;12.20;;;11.90;;
673;SDS011;319;48.764;9.174;2023-08-17T04:59:53;7.30;;;7.10;;
673;SDS011;319;48.764;9.174;2023-08-17T05:02:20;13.33;;;12.93;;
673;SDS011;319;48.764;9.174;2023-08-17T05:04:48;11.40;;;11.10;;
673;SDS011;319;48.764;9.174;2023-08-17T05:07:15;11.40;;;11.10;;
673;SDS011;319;48.764;9.174;2023-08-17T05:09:42;11.10;;;10.80;;
673;SDS011;319;48.764;9.174;2023-08-17T05:12:08;11.40;;;11.10;;
673;SDS011;319;48.764;9.174;2023-08-17T05:14:35;13.20;;;12.80;;
673;SDS011;319;48.764;9.174;2023-08-17T05:17:02;12.70;;;12.40;;
673;SDS011;319;48.764;9.174;2023-08-17T05:19:29;12.47;;;12.17;;
673;SDS011;319;48.764;9.174;2023-08-17T05:21:57;12.63;;;12.33;;
673;SDS011;319;48.764;9.174;2023-08-17T05:24:24;10.90;;;10.60;;
673;SDS011;319;48.764;9.174;2023-08-17T05:26:51;12.60;;;12.30;;
673;SDS011;319;48.764;9.174;2023-08-17T05:29:18;12.33;;;12.03;;
673;SDS011;319;48.764;9.174;2023-08-17T05:31:45;13.53;;;13.13;;
673;SDS011;319;48.764;9.174;2023-08-17T05:34:12;12.73;;;12.43;;
673;SDS011;319;48.764;9.174;2023-08-17T05:36:38;13.50;;;13.10;;
673;SDS011;319;48.764;9.174;2023-08-17T05:39:07;12.77;;;12.47;;
673;SDS011;319;48.764;9.174;2023-08-17T05:41:34;13.10;;;12.70;;
673;SDS011;319;48.764;9.174;2023-08-17T05:44:01;13.90;;;13.50;;
673;SDS011;319;48.764;9.174;2023-08-17T05:46:29;14.20;;;13.80;;
673;SDS011;319;48.764;9.174;2023-08-17T05:48:56;14.07;;;13.67;;
673;SDS011;319;48.764;9.174;2023-08-17T05:51:23;13.23;;;12.83;;
673;SDS011;319;48.764;9.174;2023-08-17T05:53:50;13.50;;;13.10;;
673;SDS011;319;48.764;9.174;2023-08-17T05:56:18;13.50;;;13.10;;
673;SDS011;319;48.764;9.174;2023-08-17T05:58:45;13.70;;;13.30;;
673;SDS011;319;48.764;9.174;2023-08-17T06:01:12;13.40;;;13.00;;
673;SDS011;319;48.764;9.174;2023-08-17T06:03:40;12.40;;;12.10;;
673;SDS011;319;48.764;9.174;2023-08-17T06:06:07;3.60;;;3.50;;
673;SDS011;319;48.764;9.174;2023-08-17T06:08:34;10.90;;;10.60;;
673;SDS011;319;48.764;9.174;2023-08-17T06:11:01;14.10;;;13.70;;
673;SDS011;319;48.764;9.174;2023-08-17T06:13:29;14.90;;;14.50;;
673;SDS011;319;48.764;9.174;2023-08-17T06:15:56;14.70;;;14.30;;
673;SDS011;319;48.764;9.174;2023-08-17T06:18:23;15.50;;;15.10;;
673;SDS011;319;48.764;9.174;2023-08-17T06:20:50;14.57;;;14.17;;
673;SDS011;319;48.764;9.174;2023-08-17T06:23:18;15.37;;;14.90;;
673;SDS011;319;48.764;9.174;2023-08-17T06:25:45;9.90;;;9.60;;
673;SDS011;319;48.764;9.174;2023-08-17T06:28:12;12.30;;;12.00;;
673;SDS011;319;48.764;9.174;2023-08-17T06:30:40;15.20;;;14.80;;
673;SDS011;319;48.764;9.174;2023-08-17T06:33:07;14.40;;;14.00;;
673;SDS011;319;48.764;9.174;2023-08-17T06:35:34;14.50;;;14.10;;
673;SDS011;319;48.764;9.174;2023-08-17T06:38:01;13.70;;;13.30;;
673;SDS011;319;48.764;9.174;2023-08-17T06:40:28;14.90;;;14.50;;
673;SDS011;319;48.764;9.174;2023-08-17T06:42:55;14.00;;;13.60;;
673;SDS011;319;48.764;9.174;2023-08-17T06:45:22;12.73;;;12.37;;
673;SDS011;319;48.764;9.174;2023-08-17T06:47:50;14.47;;;14.07;;
673;SDS011;319;48.764;9.174;2023-08-17T06:50:17;10.00;;;9.70;;
673;SDS011;319;48.764;9.174;2023-08-17T06:52:44;14.70;;;14.30;;
673;SDS011;319;48.764;9.174;2023-08-17T06:55:11;13.93;;;13.53;;
673;SDS011;319;48.764;9.174;2023-08-17T06:57:38;15.40;;;14.90;;
673;SDS011;319;48.764;9.174;2023-08-17T07:00:05;15.87;;;15.37;;
673;SDS011;319;48.764;9.174;2023-08-17T07:02:33;15.63;;;15.13;;
673;SDS011;319;48.764;9.174;2023-08-17T07:05:02;16.23;;;15.73;;
673;SDS011;319;48.764;9.174;2023-08-17T07:07:30;14.87;;;14.47;;
673;SDS011;319;48.764;9.174;2023-08-17T07:09:57;13.10;;;12.73;;
673;SDS011;319;48.764;9.174;2023-08-17T07:12:26;7.30;;;7.10;;
673;SDS011;319;48.764;9.174;2023-08-17T07:14:53;10.90;;;10.60;;
673;SDS011;319;48.764;9.174;2023-08-17T07:17:20;8.70;;;8.50;;
673;SDS011;319;48.764;9.174;2023-08-17T07:19:47;7.27;;;7.07;;
673;SDS011;319;48.764;9.174;2023-08-17T07:22:15;9.80;;;9.60;;
673;SDS011;319;48.764;9.174;2023-08-17T07:24:42;12.40;;;12.10;;
673;SDS011;319;48.764;9.174;2023-08-17T07:27:09;13.13;;;12.83;;
673;SDS011;319;48.764;9.174;2023-08-17T07:29:36;12.67;;;12.37;;
673;SDS011;319;48.764;9.174;2023-08-17T07:32:03;19.10;;;18.50;;
673;SDS011;319;48.764;9.174;2023-08-17T07:34:31;3.23;;;3.13;;
673;SDS011;319;48.764;9.174;2023-08-17T07:36:58;0.80;;;0.80;;
673;SDS011;319;48.764;9.174;2023-08-17T07:39:26;0.80;;;0.80;;
673;SDS011;319;48.764;9.174;2023-08-17T07:41:53;0.82;;;0.82;;
673;SDS011;319;48.764;9.174;2023-08-17T07:44:20;0.80;;;0.80;;
673;SDS011;319;48.764;9.174;2023-08-17T07:46:46;0.80;;;0.80;;
673;SDS011;319;48.764;9.174;2023-08-17T07:49:13;0.80;;;0.80;;
673;SDS011;319;48.764;9.174;2023-08-17T07:51:40;0.80;;;0.80;;
673;SDS011;319;48.764;9.174;2023-08-17T07:54:07;0.70;;;0.70;;
673;SDS011;319;48.764;9.174;2023-08-17T07:56:36;0.88;;;0.88;;
673;SDS011;319;48.764;9.174;2023-08-17T07:59:03;0.80;;;0.80;;
673;SDS011;319;48.764;9.174;2023-08-17T08:01:30;0.80;;;0.80;;
673;SDS011;319;48.764;9.174;2023-08-17T08:03:57;0.80;;;0.80;;
673;SDS011;319;48.764;9.174;2023-08-17T08:06:24;0.90;;;0.90;;
673;SDS011;319;48.764;9.174;2023-08-17T08:08:50;0.80;;;0.80;;
673;SDS011;319;48.764;9.174;2023-08-17T08:11:17;0.80;;;0.80;;
673;SDS011;319;48.764;9.174;2023-08-17T08:13:46;0.90;;;0.90;;
673;SDS011;319;48.764;9.174;2023-08-17T08:16:12;0.80;;;0.80;;
673;SDS011;319;48.764;9.174;2023-08-17T08:18:39;0.88;;;0.88;;
673;SDS011;319;48.764;9.174;2023-08-17T08:21:06;0.80;;;0.80;;
673;SDS011;319;48.764;9.174;2023-08-17T08:23:33;0.90;;;0.90;;
673;SDS011;319;48.764;9.174;2023-08-17T08:26:00;0.90;;;0.90;;
673;SDS011;319;48.764;9.174;2023-08-17T08:28:27;0.90;;;0.90;;
673;SDS011;319;48.764;9.174;2023-08-17T08:30:55;0.80;;;0.80;;
673;SDS011;319;48.764;9.174;2023-08-17T08:33:27;0.80;;;0.80;;
673;SDS011;319;48.764;9.174;2023-08-17T08:35:54;0.80;;;0.80;;
673;SDS011;319;48.764;9.174;2023-08-17T08:38:21;0.90;;;0.90;;
673;SDS011;319;48.764;9.174;2023-08-17T08:40:48;0.80;;;0.80;;
673;SDS011;319;48.764;9.174;2023-08-17T08:43:15;0.82;;;0.82;;
673;SDS011;319;48.764;9.174;2023-08-17T08:45:42;0.70;;;0.70;;
673;SDS011;319;48.764;9.174;2023-08-17T08:48:12;0.70;;;0.70;;
673;SDS011;319;48.764;9.174;2023-08-17T08:50:41;0.80;;;0.80;;
673;SDS011;319;48.764;9.174;2023-08-17T08:53:10;0.80;;;0.80;;
673;SDS011;319;48.764;9.174;2023-08-17T08:55:41;0.90;;;0.90;;
673;SDS011;319;48.764;9.174;2023-08-17T08:58:15;0.80;;;0.80;;
673;SDS011;319;48.764;9.174;2023-08-17T09:00:45;0.80;;;0.80;;
673;SDS011;319;48.764;9.174;2023-08-17T09:03:16;0.80;;;0.80;;
673;SDS011;319;48.764;9.174;2023-08-17T09:05:45;0.70;;;0.70;;
673;SDS011;319;48.764;9.174;2023-08-17T09:08:14;0.80;;;0.80;;
673;SDS011;319;48.764;9.174;2023-08-17T09:10:44;0.70;;;0.70;;
673;SDS011;319;48.764;9.174;2023-08-17T09:13:11;0.80;;;0.80;;
673;SDS011;319;48.764;9.174;2023-08-17T09:15:38;0.80;;;0.80;;
673;SDS011;319;48.764;9.174;2023-08-17T09:18:05;0.80;;;0.80;;
673;SDS011;319;48.764;9.174;2023-08-17T09:20:37;0.80;;;0.80;;
673;SDS011;319;48.764;9.174;2023-08-17T09:23:09;0.80;;;0.80;;
673;SDS011;319;48.764;9.174;2023-08-17T09:25:38;0.80;;;0.80;;
673;SDS011;319;48.764;9.174;2023-08-17T09:28:06;0.80;;;0.80;;
673;SDS011;319;48.764;9.174;2023-08-17T09:30:48;0.80;;;0.80;;
673;SDS011;319;48.764;9.174;2023-08-17T09:33:17;0.80;;;0.80;;
673;SDS011;319;48.764;9.174;2023-08-17T09:35:45;0.80;;;0.80;;
673;SDS011;319;48.764;9.174;2023-08-17T09:38:12;0.80;;;0.80;;
673;SDS011;319;48.764;9.174;2023-08-17T09:40:40;0.80;;;0.80;;
673;SDS011;319;48.764;9.174;2023-08-17T09:43:06;0.80;;;0.80;;
673;SDS011;319;48.764;9.174;2023-08-17T09:45:37;0.90;;;0.90;;
673;SDS011;319;48.764;9.174;2023-08-17T09:48:05;0.90;;;0.90;;
673;SDS011;319;48.764;9.174;2023-08-17T09:50:33;0.80;;;0.80;;
673;SDS011;319;48.764;9.174;2023-08-17T09:53:02;0.80;;;0.80;;
673;SDS011;319;48.764;9.174;2023-08-17T09:55:30;0.90;;;0.90;;
673;SDS011;319;48.764;9.174;2023-08-17T09:57:58;0.80;;;0.80;;
673;SDS011;319;48.764;9.174;2023-08-17T10:00:25;0.80;;;0.80;;
673;SDS011;319;48.764;9.174;2023-08-17T10:02:53;0.90;;;0.90;;
673;SDS011;319;48.764;9.174;2023-08-17T10:05:24;0.80;;;0.80;;
673;SDS011;319;48.764;9.174;2023-08-17T10:07:59;0.80;;;0.80;;
673;SDS011;319;48.764;9.174;2023-08-17T10:10:32;0.83;;;0.83;;
673;SDS011;319;48.764;9.174;2023-08-17T10:13:04;0.80;;;0.80;;
673;SDS011;319;48.764;9.174;2023-08-17T10:15:36;0.80;;;0.80;;
673;SDS011;319;48.764;9.174;2023-08-17T10:18:09;0.90;;;0.90;;
673;SDS011;319;48.764;9.174;2023-08-17T10:20:40;0.80;;;0.80;;
673;SDS011;319;48.764;9.174;2023-08-17T10:23:14;0.80;;;0.80;;
673;SDS011;319;48.764;9.174;2023-08-17T10:25:43;0.90;;;0.90;;
673;SDS011;319;48.764;9.174;2023-08-17T10:28:10;0.80;;;0.80;;
673;SDS011;319;48.764;9.174;2023-08-17T10:30:38;0.90;;;0.90;;
673;SDS011;319;48.764;9.174;2023-08-17T10:33:06;0.90;;;0.90;;
673;SDS011;319;48.764;9.174;2023-08-17T10:35:35;2.10;;;2.00;;
673;SDS011;319;48.764;9.174;2023-08-17T10:38:02;0.90;;;0.90;;
673;SDS011;319;48.764;9.174;2023-08-17T10:40:36;0.80;;;0.80;;
673;SDS011;319;48.764;9.174;2023-08-17T10:43:04;0.80;;;0.80;;
673;SDS011;319;48.764;9.174;2023-08-17T10:45:31;0.80;;;0.80;;
673;SDS011;319;48.764;9.174;2023-08-17T10:48:00;0.80;;;0.80;;
673;SDS011;319;48.764;9.174;2023-08-17T10:50:44;0.80;;;0.80;;
673;SDS011;319;48.764;9.174;2023-08-17T10:53:25;0.90;;;0.90;;
673;SDS011;319;48.764;9.174;2023-08-17T10:55:56;0.80;;;0.80;;
673;SDS011;319;48.764;9.174;2023-08-17T10:58:23;0.80;;;0.80;;
673;SDS011;319;48.764;9.174;2023-08-17T11:00:54;0.80;;;0.80;;
673;SDS011;319;48.764;9.174;2023-08-17T11:03:21;0.80;;;0.80;;
673;SDS011;319;48.764;9.174;2023-08-17T11:05:50;0.80;;;0.80;;
673;SDS011;319;48.764;9.174;2023-08-17T11:08:19;0.80;;;0.80;;
673;SDS011;319;48.764;9.174;2023-08-17T11:10:47;0.87;;;0.87;;
673;SDS011;319;48.764;9.174;2023-08-17T11:13:25;0.80;;;0.80;;
673;SDS011;319;48.764;9.174;2023-08-17T11:15:54;0.80;;;0.80;;
673;SDS011;319;48.764;9.174;2023-08-17T11:18:21;0.80;;;0.80;;
673;SDS011;319;48.764;9.174;2023-08-17T11:20:48;0.90;;;0.90;;
673;SDS011;319;48.764;9.174;2023-08-17T11:23:16;0.80;;;0.80;;
673;SDS011;319;48.764;9.174;2023-08-17T11:25:44;0.80;;;0.80;;
673;SDS011;319;48.764;9.174;2023-08-17T11:28:11;0.80;;;0.80;;
673;SDS011;319;48.764;9.174;2023-08-17T11:30:41;0.80;;;0.80;;
673;SDS011;319;48.764;9.174;2023-08-17T11:33:08;0.70;;;0.70;;
673;SDS011;319;48.764;9.174;2023-08-17T11:35:36;0.90;;;0.90;;
673;SDS011;319;48.764;9.174;2023-08-17T11:38:03;0.80;;;0.80;;
673;SDS011;319;48.764;9.174;2023-08-17T11:40:31;0.83;;;0.83;;
673;SDS011;319;48.764;9.174;2023-08-17T11:42:58;0.80;;;0.80;;
673;SDS011;319;48.764;9.174;2023-08-17T11:45:25;0.90;;;0.90;;
673;SDS011;319;48.764;9.174;2023-08-17T11:47:54;0.80;;;0.80;;
673;SDS011;319;48.764;9.174;2023-08-17T11:50:21;0.80;;;0.80;;
673;SDS011;319;48.764;9.174;2023-08-17T11:52:50;0.87;;;0.87;;
673;SDS011;319;48.764;9.174;2023-08-17T11:55:17;0.80;;;0.80;;
673;SDS011;319;48.764;9.174;2023-08-17T11:57:45;0.80;;;0.80;;
673;SDS011;319;48.764;9.174;2023-08-17T12:00:17;0.80;;;0.80;;
673;SDS011;319;48.764;9.174;2023-08-17T12:02:48;0.80;;;0.80;;
673;SDS011;319;48.764;9.174;2023-08-17T12:05:21;0.80;;;0.80;;
673;SDS011;319;48.764;9.174;2023-08-17T12:07:49;0.90;;;0.90;;
673;SDS011;319;48.764;9.174;2023-08-17T12:10:17;0.80;;;0.80;;
673;SDS011;319;48.764;9.174;2023-08-17T12:12:44;0.87;;;0.87;;
673;SDS011;319;48.764;9.174;2023-08-17T12:15:13;0.80;;;0.80;;
673;SDS011;319;48.764;9.174;2023-08-17T12:17:41;0.73;;;0.73;;
673;SDS011;319;48.764;9.174;2023-08-17T12:20:15;0.80;;;0.80;;
673;SDS011;319;48.764;9.174;2023-08-17T12:22:44;0.80;;;0.80;;
673;SDS011;319;48.764;9.174;2023-08-17T12:25:11;0.80;;;0.80;;
673;SDS011;319;48.764;9.174;2023-08-17T12:27:38;0.77;;;0.77;;
673;SDS011;319;48.764;9.174;2023-08-17T12:30:11;0.80;;;0.80;;
673;SDS011;319;48.764;9.174;2023-08-17T12:32:39;0.90;;;0.90;;
673;SDS011;319;48.764;9.174;2023-08-17T12:35:06;0.90;;;0.90;;
673;SDS011;319;48.764;9.174;2023-08-17T12:37:34;0.90;;;0.90;;
673;SDS011;319;48.764;9.174;2023-08-17T12:40:02;0.80;;;0.80;;
673;SDS011;319;48.764;9.174;2023-08-17T12:42:30;0.80;;;0.80;;
673;SDS011;319;48.764;9.174;2023-08-17T12:44:57;0.80;;;0.80;;
673;SDS011;319;48.764;9.174;2023-08-17T12:47:24;0.80;;;0.80;;
673;SDS011;319;48.764;9.174;2023-08-17T12:49:50;0.80;;;0.80;;
673;SDS011;319;48.764;9.174;2023-08-17T12:52:17;0.80;;;0.80;;
673;SDS011;319;48.764;9.174;2023-08-17T12:54:44;0.80;;;0.80;;
673;SDS011;319;48.764;9.174;2023-08-17T12:57:13;0.80;;;0.80;;
673;SDS011;319;48.764;9.174;2023-08-17T12:59:40;0.90;;;0.90;;
673;SDS011;319;48.764;9.174;2023-08-17T13:02:07;0.80;;;0.80;;
673;SDS011;319;48.764;9.174;2023-08-17T13:04:34;0.90;;;0.90;;
673;SDS011;319;48.764;9.174;2023-08-17T13:07:01;0.80;;;0.80;;
673;SDS011;319;48.764;9.174;2023-08-17T13:09:28;0.80;;;0.80;;
673;SDS011;319;48.764;9.174;2023-08-17T13:11:55;0.80;;;0.80;;
673;SDS011;319;48.764;9.174;2023-08-17T13:14:24;0.80;;;0.80;;
673;SDS011;319;48.764;9.174;2023-08-17T13:16:51;5.33;;;5.20;;
673;SDS011;319;48.764;9.174;2023-08-17T13:19:18;7.20;;;7.00;;
673;SDS011;319;48.764;9.174;2023-08-17T13:21:45;0.90;;;0.90;;
673;SDS011;319;48.764;9.174;2023-08-17T13:24:12;0.80;;;0.80;;
673;SDS011;319;48.764;9.174;2023-08-17T13:26:39;0.80;;;0.80;;
673;SDS011;319;48.764;9.174;2023-08-17T13:29:06;0.90;;;0.90;;
673;SDS011;319;48.764;9.174;2023-08-17T13:31:35;0.80;;;0.80;;
673;SDS011;319;48.764;9.174;2023-08-17T13:34:02;0.90;;;0.90;;
673;SDS011;319;48.764;9.174;2023-08-17T13:36:29;0.90;;;0.90;;
673;SDS011;319;48.764;9.174;2023-08-17T13:38:56;0.90;;;0.90;;
673;SDS011;319;48.764;9.174;2023-08-17T13:41:23;4.40;;;4.30;;
673;SDS011;319;48.764;9.174;2023-08-17T13:43:50;6.97;;;6.77;;
673;SDS011;319;48.764;9.174;2023-08-17T13:46:17;0.90;;;0.90;;
673;SDS011;319;48.764;9.174;2023-08-17T13:48:45;0.80;;;0.80;;
673;SDS011;319;48.764;9.174;2023-08-17T13:51:12;0.90;;;0.90;;
673;SDS011;319;48.764;9.174;2023-08-17T13:53:39;0.80;;;0.80;;
673;SDS011;319;48.764;9.174;2023-08-17T13:56:06;0.80;;;0.80;;
673;SDS011;319;48.764;9.174;2023-08-17T13:58:34;0.77;;;0.77;;
673;SDS011;319;48.764;9.174;2023-08-17T14:01:01;0.80;;;0.80;;
673;SDS011;319;48.764;9.174;2023-08-17T14:03:28;0.80;;;0.80;;
673;SDS011;319;48.764;9.174;2023-08-17T14:05:57;0.90;;;0.90;;
673;SDS011;319;48.764;9.174;2023-08-17T14:08:23;0.80;;;0.80;;
673;SDS011;319;48.764;9.174;2023-08-17T14:10:50;0.80;;;0.80;;
673;SDS011;319;48.764;9.174;2023-08-17T14:13:17;0.90;;;0.90;;
673;SDS011;319;48.764;9.174;2023-08-17T14:15:44;0.80;;;0.80;;
673;SDS011;319;48.764;9.174;2023-08-17T14:18:11;0.80;;;0.80;;
673;SDS011;319;48.764;9.174;2023-08-17T14:20:38;0.90;;;0.90;;
673;SDS011;319;48.764;9.174;2023-08-17T14:23:06;0.80;;;0.80;;
673;SDS011;319;48.764;9.174;2023-08-17T14:25:33;0.80;;;0.80;;
673;SDS011;319;48.764;9.174;2023-08-17T14:28:02;0.80;;;0.80;;
673;SDS011;319;48.764;9.174;2023-08-17T14:30:30;0.80;;;0.80;;
673;SDS011;319;48.764;9.174;2023-08-17T14:32:57;0.80;;;0.80;;
673;SDS011;319;48.764;9.174;2023-08-17T14:35:24;0.80;;;0.80;;
673;SDS011;319;48.764;9.174;2023-08-17T14:37:52;0.80;;;0.80;;
673;SDS011;319;48.764;9.174;2023-08-17T14:43:12;0.70;;;0.70;;
673;SDS011;319;48.764;9.174;2023-08-17T14:45:39;0.80;;;0.80;;
673;SDS011;319;48.764;9.174;2023-08-17T14:48:06;0.80;;;0.80;;
673;SDS011;319;48.764;9.174;2023-08-17T14:50:34;0.80;;;0.80;;
673;SDS011;319;48.764;9.174;2023-08-17T14:53:01;0.80;;;0.80;;
673;SDS011;319;48.764;9.174;2023-08-17T14:55:29;0.80;;;0.80;;
673;SDS011;319;48.764;9.174;2023-08-17T14:57:57;0.80;;;0.80;;
673;SDS011;319;48.764;9.174;2023-08-17T15:00:24;0.70;;;0.70;;
673;SDS011;319;48.764;9.174;2023-08-17T15:02:55;0.80;;;0.80;;
673;SDS011;319;48.764;9.174;2023-08-17T15:05:22;0.87;;;0.87;;
673;SDS011;319;48.764;9.174;2023-08-17T15:07:49;0.80;;;0.80;;
673;SDS011;319;48.764;9.174;2023-08-17T15:10:16;0.90;;;0.90;;
673;SDS011;319;48.764;9.174;2023-08-17T15:12:43;0.90;;;0.90;;
673;SDS011;319;48.764;9.174;2023-08-17T15:15:12;0.90;;;0.90;;
673;SDS011;319;48.764;9.174;2023-08-17T15:17:39;0.80;;;0.80;;
673;SDS011;319;48.764;9.174;2023-08-17T15:20:06;0.90;;;0.90;;
673;SDS011;319;48.764;9.174;2023-08-17T15:22:34;0.90;;;0.90;;
673;SDS011;319;48.764;9.174;2023-08-17T15:25:01;0.80;;;0.80;;
673;SDS011;319;48.764;9.174;2023-08-17T15:27:28;0.90;;;0.90;;
673;SDS011;319;48.764;9.174;2023-08-17T15:29:55;0.80;;;0.80;;
673;SDS011;319;48.764;9.174;2023-08-17T15:32:23;0.80;;;0.80;;
673;SDS011;319;48.764;9.174;2023-08-17T15:34:53;0.80;;;0.80;;
673;SDS011;319;48.764;9.174;2023-08-17T15:37:20;0.90;;;0.90;;
673;SDS011;319;48.764;9.174;2023-08-17T15:39:47;0.80;;;0.80;;
673;SDS011;319;48.764;9.174;2023-08-17T15:42:14;0.80;;;0.80;;